Calypso, North Carolina
Current Conditions -  °F | °C
As of 8:55 PM on Sunday 21 Dec 2014 (Local Time) from KDPL Reporting Station
Overcast Overcast  
Wind Chill:   Ceiling: 3800
Heat Index:   Visibility: 10mi
Dew Point:   Wind: 0mph
Humidity: 70%   Direction: NA
Pressure: 30.24"   Gusts: NA
Location:  35.15°N, 78.11°W
Report Text: KDPL 220155Z AUTO 00000KT 10SM OVC038 07/02 A3024 RMK AO2 T00710019
Loading
Personal Weather Stations






























Interactive Weather Map New forecast layout! Learn more

10-Day Weather Forecast

Advertisements
Track Severe Weather on mobile